Time;durP1;ratioP1;P1;durP2;ratioP2;P2;SDS_P1;SDS_P2;PMS_P1;PMS_P2;Temp;Humidity;BMP_temperature;BMP_pressure;BME280_temperature;BME280_humidity;BME280_pressure;Samples;Min_cycle;Max_cycle;Signal;HPM_P1;HPM_P2
2023/03/19 00:00:36;;;;;;;1.97;1.10;;;18.90;61.10;;;;;;5092277;28;20193;-45
2023/03/19 00:03:07;;;;;;;1.57;1.00;;;18.80;61.00;;;;;;5086176;28;20205;-45
2023/03/19 00:05:39;;;;;;;1.37;0.77;;;18.80;61.00;;;;;;5089738;28;20185;-45
2023/03/19 00:08:07;;;;;;;0.93;0.80;;;18.80;61.10;;;;;;5088921;28;20209;-45
2023/03/19 00:10:39;;;;;;;1.30;0.80;;;18.80;61.00;;;;;;5098596;28;20192;-45
2023/03/19 00:13:12;;;;;;;1.27;0.90;;;18.80;61.10;;;;;;5094939;28;20597;-46
2023/03/19 00:15:43;;;;;;;1.33;0.90;;;18.80;61.10;;;;;;5093717;28;20224;-46
2023/03/19 00:18:12;;;;;;;2.17;0.83;;;18.80;61.20;;;;;;5097138;28;20209;-46
2023/03/19 00:20:42;;;;;;;2.30;0.97;;;18.80;61.10;;;;;;5094854;28;20790;-46
2023/03/19 00:23:11;;;;;;;1.00;0.80;;;18.80;61.20;;;;;;5081204;28;20209;-45
2023/03/19 00:25:41;;;;;;;1.67;1.10;;;18.80;61.10;;;;;;5087359;28;20240;-46
2023/03/19 00:28:11;;;;;;;1.53;0.80;;;18.80;61.20;;;;;;5084961;28;20240;-46
2023/03/19 00:30:43;;;;;;;1.20;1.00;;;18.80;61.10;;;;;;5096149;28;20193;-46
2023/03/19 00:33:16;;;;;;;1.33;0.90;;;18.80;61.20;;;;;;5093193;28;20555;-46
2023/03/19 00:35:45;;;;;;;2.40;0.90;;;18.80;61.20;;;;;;5109242;28;20538;-45
2023/03/19 00:38:18;;;;;;;2.70;0.90;;;18.70;61.00;;;;;;5093097;28;20212;-45
2023/03/19 00:40:48;;;;;;;0.97;0.80;;;18.80;61.10;;;;;;5095802;28;20634;-45
2023/03/19 00:43:18;;;;;;;1.50;1.10;;;18.80;61.10;;;;;;5075057;28;20224;-46
2023/03/19 00:45:51;;;;;;;1.33;0.83;;;18.80;61.10;;;;;;5095826;28;20217;-46
2023/03/19 00:48:22;;;;;;;2.40;0.70;;;18.80;61.10;;;;;;5082116;28;20204;-46
2023/03/19 00:50:52;;;;;;;1.00;0.90;;;18.80;61.10;;;;;;5093144;28;20205;-46
2023/03/19 00:53:20;;;;;;;1.53;1.07;;;18.70;61.00;;;;;;5093902;28;20188;-46
2023/03/19 00:55:52;;;;;;;1.30;1.10;;;18.80;61.00;;;;;;5106185;28;20573;-46
2023/03/19 00:58:24;;;;;;;2.83;0.97;;;18.70;61.00;;;;;;5110117;28;20261;-45
2023/03/19 01:00:56;;;;;;;2.23;1.13;;;18.70;60.90;;;;;;5095930;28;20208;-45
2023/03/19 01:03:35;;;;;;;1.57;1.03;;;18.70;60.90;;;;;;5088846;28;20208;-46
2023/03/19 01:06:09;;;;;;;0.77;0.70;;;18.70;60.90;;;;;;5111859;28;20200;-46
2023/03/19 01:08:40;;;;;;;0.80;0.80;;;18.70;60.80;;;;;;5099341;28;20557;-45
2023/03/19 01:11:17;;;;;;;0.87;0.87;;;18.70;60.90;;;;;;5091764;28;20228;-45
2023/03/19 01:13:57;;;;;;;1.27;1.17;;;18.70;60.80;;;;;;5074119;28;20586;-45
2023/03/19 01:16:30;;;;;;;1.33;1.00;;;18.80;60.90;;;;;;5097197;28;20215;-46
2023/03/19 01:19:04;;;;;;;1.20;1.10;;;18.70;60.90;;;;;;5098600;28;20311;-45
2023/03/19 01:21:41;;;;;;;1.20;0.87;;;18.70;60.80;;;;;;5089005;28;20204;-45
2023/03/19 01:24:15;;;;;;;0.90;0.90;;;18.70;60.90;;;;;;5097513;28;20233;-46
2023/03/19 01:26:44;;;;;;;1.63;1.00;;;18.70;61.00;;;;;;5063321;28;20241;-45
2023/03/19 01:29:14;;;;;;;1.87;1.10;;;18.70;60.90;;;;;;5078733;28;20201;-46
2023/03/19 01:31:45;;;;;;;1.83;1.00;;;18.70;60.90;;;;;;5069902;28;20694;-45
2023/03/19 01:34:17;;;;;;;1.50;1.00;;;18.70;60.90;;;;;;5077396;28;20193;-46
2023/03/19 01:36:49;;;;;;;2.23;1.20;;;18.70;60.90;;;;;;5090483;28;20633;-45
2023/03/19 01:39:22;;;;;;;1.97;1.20;;;18.70;60.80;;;;;;5065780;28;20734;-45
2023/03/19 01:41:57;;;;;;;1.43;1.33;;;18.70;60.90;;;;;;5071476;28;20196;-45
2023/03/19 01:44:31;;;;;;;1.93;1.00;;;18.70;60.90;;;;;;5081289;28;20644;-45
2023/03/19 01:47:12;;;;;;;1.60;1.00;;;18.70;60.90;;;;;;5072361;28;20193;-45
2023/03/19 01:49:44;;;;;;;0.80;0.80;;;18.70;60.90;;;;;;5057033;28;20194;-45
2023/03/19 01:52:16;;;;;;;1.30;1.03;;;18.70;60.90;;;;;;5093052;27;20206;-45
2023/03/19 01:54:49;;;;;;;1.40;1.10;;;18.70;60.80;;;;;;5075259;28;20205;-45
2023/03/19 01:57:18;;;;;;;1.30;1.10;;;18.70;60.80;;;;;;5055137;28;20595;-46
2023/03/19 02:00:00;;;;;;;1.20;1.10;;;18.70;60.90;;;;;;5071165;28;20681;-46
2023/03/19 02:02:45;;;;;;;2.07;1.03;;;18.70;60.70;;;;;;5077308;28;20261;-46
2023/03/19 02:05:24;;;;;;;1.97;1.00;;;18.70;60.80;;;;;;5074090;28;20193;-45
2023/03/19 02:08:13;;;;;;;1.50;1.10;;;18.70;60.80;;;;;;5090105;28;20496;-46
2023/03/19 02:10:46;;;;;;;1.30;1.00;;;18.70;60.90;;;;;;5090430;28;20254;-45
2023/03/19 02:13:18;;;;;;;1.07;0.97;;;18.70;60.90;;;;;;5090331;28;20199;-45
2023/03/19 02:15:53;;;;;;;1.47;1.10;;;18.70;60.80;;;;;;5084483;28;20259;-45
2023/03/19 02:18:25;;;;;;;1.17;1.07;;;18.70;60.80;;;;;;5069095;28;20629;-46
2023/03/19 02:21:08;;;;;;;2.00;1.13;;;18.70;60.80;;;;;;5071524;28;20567;-46
2023/03/19 02:24:15;;;;;;;1.97;1.57;;;18.70;60.90;;;;;;5087274;28;20193;-45
2023/03/19 02:26:46;;;;;;;1.93;1.10;;;18.60;60.80;;;;;;5081000;28;20221;-46
2023/03/19 02:29:18;;;;;;;1.20;1.07;;;18.60;60.90;;;;;;5104210;28;20185;-45
2023/03/19 02:31:50;;;;;;;1.77;1.10;;;18.70;61.00;;;;;;5103550;27;20739;-45
2023/03/19 02:34:23;;;;;;;1.83;1.20;;;18.60;60.90;;;;;;5090167;28;20810;-48
2023/03/19 02:37:26;;;;;;;1.27;1.10;;;18.60;60.80;;;;;;5102436;28;20799;-46
2023/03/19 02:40:14;;;;;;;1.40;1.10;;;18.60;60.90;;;;;;5085214;28;20224;-45
2023/03/19 02:42:45;;;;;;;2.43;1.13;;;18.60;61.00;;;;;;5069051;28;20207;-44
2023/03/19 02:45:28;;;;;;;0.83;0.83;;;18.60;61.00;;;;;;5107277;28;20231;-45
2023/03/19 02:47:58;;;;;;;1.80;1.37;;;18.60;61.00;;;;;;5073729;28;20499;-45
2023/03/19 02:50:31;;;;;;;1.20;0.97;;;18.60;61.00;;;;;;5070196;28;20209;-45
2023/03/19 02:53:03;;;;;;;1.10;1.00;;;18.60;61.00;;;;;;5090594;28;20610;-46
2023/03/19 02:55:36;;;;;;;2.17;1.10;;;18.60;61.00;;;;;;5090014;28;20231;-46
2023/03/19 02:58:12;;;;;;;2.07;1.10;;;18.60;61.00;;;;;;5103210;28;20212;-46
2023/03/19 03:00:41;;;;;;;1.20;1.00;;;18.60;61.00;;;;;;5088630;28;20211;-45
2023/03/19 03:03:13;;;;;;;2.03;1.10;;;18.60;61.00;;;;;;5082471;28;20216;-45
2023/03/19 03:05:44;;;;;;;1.73;1.00;;;18.60;61.10;;;;;;5104742;27;20207;-46
2023/03/19 03:08:14;;;;;;;2.03;1.00;;;18.60;61.10;;;;;;5106104;28;20536;-46
2023/03/19 03:10:45;;;;;;;0.90;0.90;;;18.60;61.10;;;;;;5105761;28;20208;-45
2023/03/19 03:13:16;;;;;;;1.07;0.97;;;18.60;61.10;;;;;;5109613;28;20228;-46
2023/03/19 03:15:46;;;;;;;1.80;1.20;;;18.60;61.10;;;;;;5085497;28;20234;-45
2023/03/19 03:18:18;;;;;;;2.23;1.23;;;18.60;61.10;;;;;;5077625;28;20197;-46
2023/03/19 03:20:52;;;;;;;2.00;1.00;;;18.60;61.10;;;;;;5085431;28;20567;-46
2023/03/19 03:23:23;;;;;;;1.10;1.00;;;18.60;61.00;;;;;;5090071;28;20193;-46
2023/03/19 03:25:52;;;;;;;1.40;1.10;;;18.60;61.00;;;;;;5089851;28;20304;-45
2023/03/19 03:28:23;;;;;;;1.00;0.80;;;18.60;61.70;;;;;;5103997;28;20201;-45
2023/03/19 03:30:58;;;;;;;1.53;0.97;;;18.60;61.10;;;;;;5080756;28;20196;-46
2023/03/19 03:33:30;;;;;;;2.07;0.80;;;18.60;61.10;;;;;;5081806;28;20202;-45
2023/03/19 03:36:02;;;;;;;0.90;0.77;;;18.60;61.10;;;;;;5100385;28;20205;-45
2023/03/19 03:38:33;;;;;;;2.83;1.00;;;18.50;61.20;;;;;;5079920;28;20221;-45
2023/03/19 03:41:05;;;;;;;1.50;0.93;;;18.50;61.10;;;;;;5101822;28;20219;-45
2023/03/19 03:43:35;;;;;;;2.87;1.10;;;18.60;61.20;;;;;;5085791;28;20204;-45
2023/03/19 03:46:07;;;;;;;1.27;1.10;;;18.60;61.20;;;;;;5106026;28;20193;-46
2023/03/19 03:48:37;;;;;;;0.83;0.83;;;18.50;61.10;;;;;;5091869;28;20810;-45
2023/03/19 03:51:08;;;;;;;1.40;0.90;;;18.60;61.20;;;;;;5068666;28;20233;-45
2023/03/19 03:53:37;;;;;;;1.70;1.03;;;18.60;61.20;;;;;;5085085;28;20272;-45
2023/03/19 03:56:05;;;;;;;1.40;0.83;;;18.50;61.20;;;;;;5088997;28;20609;-46
2023/03/19 03:58:37;;;;;;;1.07;0.77;;;18.60;61.20;;;;;;5101683;28;20216;-46
2023/03/19 04:01:05;;;;;;;0.90;0.80;;;18.60;61.20;;;;;;5093109;28;20610;-45
2023/03/19 04:03:33;;;;;;;1.30;0.77;;;18.50;61.10;;;;;;5088322;28;20212;-45
2023/03/19 04:06:04;;;;;;;1.73;1.00;;;18.50;61.10;;;;;;5116296;27;20280;-45
2023/03/19 04:08:34;;;;;;;1.13;0.90;;;18.60;61.10;;;;;;5105736;28;20205;-45
2023/03/19 04:11:07;;;;;;;1.70;0.73;;;18.50;61.10;;;;;;5102384;28;20254;-45
2023/03/19 04:13:37;;;;;;;1.43;0.70;;;18.50;61.10;;;;;;5073072;28;20205;-46
2023/03/19 04:16:09;;;;;;;1.10;0.87;;;18.50;61.10;;;;;;5081600;28;20603;-45
2023/03/19 04:18:37;;;;;;;1.00;0.90;;;18.60;61.30;;;;;;5096464;28;20205;-45
2023/03/19 04:21:07;;;;;;;1.53;0.77;;;18.60;61.30;;;;;;5058211;28;20558;-45
2023/03/19 04:23:37;;;;;;;1.20;0.90;;;18.50;61.20;;;;;;5092906;28;20208;-45
2023/03/19 04:26:13;;;;;;;1.53;1.10;;;18.50;61.20;;;;;;5077338;28;20289;-45
2023/03/19 04:28:43;;;;;;;1.63;1.03;;;18.50;61.20;;;;;;5092666;28;20503;-46
2023/03/19 04:31:12;;;;;;;0.97;0.83;;;18.50;61.20;;;;;;5059510;28;20240;-45
2023/03/19 04:33:43;;;;;;;1.97;0.83;;;18.50;61.20;;;;;;5079368;28;20204;-46
2023/03/19 04:36:12;;;;;;;1.30;1.10;;;18.50;61.30;;;;;;5082274;28;20189;-46
2023/03/19 04:38:43;;;;;;;1.67;1.20;;;18.50;61.30;;;;;;5093393;28;20229;-46
2023/03/19 04:41:16;;;;;;;1.00;0.97;;;18.50;61.20;;;;;;5070122;28;20213;-46
2023/03/19 04:43:43;;;;;;;1.20;1.10;;;18.50;61.20;;;;;;5075038;28;20215;-45
2023/03/19 04:46:16;;;;;;;1.60;1.10;;;18.50;61.20;;;;;;5090775;28;20189;-46
2023/03/19 04:48:46;;;;;;;1.33;1.00;;;18.50;61.20;;;;;;5086672;28;20370;-46
2023/03/19 04:51:17;;;;;;;1.47;1.30;;;18.50;61.30;;;;;;5084627;28;20648;-45
2023/03/19 04:54:05;;;;;;;1.10;0.83;;;18.50;61.30;;;;;;5083971;28;20201;-45
2023/03/19 04:56:36;;;;;;;0.97;0.77;;;18.50;61.40;;;;;;5083231;28;20201;-45
2023/03/19 04:59:07;;;;;;;1.03;0.97;;;18.50;61.30;;;;;;5088437;28;20642;-46
2023/03/19 05:01:52;;;;;;;1.00;0.90;;;18.50;61.20;;;;;;5082405;28;20201;-46
2023/03/19 05:04:22;;;;;;;1.10;0.90;;;18.50;61.30;;;;;;5090809;28;20204;-45
2023/03/19 05:06:57;;;;;;;0.93;0.93;;;18.50;61.40;;;;;;5089924;28;20598;-45
2023/03/19 05:09:25;;;;;;;2.30;1.03;;;18.50;61.50;;;;;;5091030;28;20197;-45
2023/03/19 05:11:53;;;;;;;2.03;1.13;;;18.50;61.30;;;;;;5083415;28;20220;-46
2023/03/19 05:14:22;;;;;;;1.40;1.10;;;18.50;61.40;;;;;;5089050;28;20219;-46
2023/03/19 05:16:53;;;;;;;1.00;0.80;;;18.50;61.40;;;;;;5089764;28;20228;-46
2023/03/19 05:19:22;;;;;;;1.00;0.90;;;18.50;61.40;;;;;;5090969;28;20185;-46
2023/03/19 05:21:56;;;;;;;1.10;0.73;;;18.50;61.40;;;;;;5091748;28;20673;-45
2023/03/19 05:24:25;;;;;;;0.77;0.70;;;18.50;61.30;;;;;;5093797;28;20189;-45
2023/03/19 05:26:57;;;;;;;0.87;0.87;;;18.50;61.30;;;;;;5096731;28;20275;-46
2023/03/19 05:29:32;;;;;;;1.37;0.80;;;18.50;61.30;;;;;;5102941;28;20613;-46
2023/03/19 05:32:03;;;;;;;1.93;1.10;;;18.50;61.20;;;;;;5100370;28;20201;-46
2023/03/19 05:34:33;;;;;;;1.57;1.07;;;18.50;61.30;;;;;;5092066;28;20193;-46
2023/03/19 05:37:00;;;;;;;1.37;0.90;;;18.40;61.30;;;;;;5104809;28;20503;-46
2023/03/19 05:39:29;;;;;;;1.37;0.80;;;18.50;61.30;;;;;;5105019;28;20216;-46
2023/03/19 05:42:02;;;;;;;1.03;0.73;;;18.50;61.30;;;;;;5116791;28;20196;-46
2023/03/19 05:44:44;;;;;;;1.17;1.00;;;18.50;61.30;;;;;;5091774;28;20795;-46
2023/03/19 05:47:16;;;;;;;1.30;1.00;;;18.50;61.20;;;;;;5109023;27;20192;-46
2023/03/19 05:49:44;;;;;;;1.33;0.90;;;18.50;61.20;;;;;;5086451;28;20271;-46
2023/03/19 05:52:15;;;;;;;0.93;0.80;;;18.50;61.20;;;;;;5104546;28;20511;-46
2023/03/19 05:54:48;;;;;;;3.10;1.20;;;18.50;61.20;;;;;;5099894;28;20189;-46
2023/03/19 05:57:20;;;;;;;1.33;1.20;;;18.40;61.10;;;;;;5101350;27;20204;-46
2023/03/19 05:59:49;;;;;;;1.00;0.80;;;18.40;61.20;;;;;;5096677;28;20210;-46
2023/03/19 06:02:19;;;;;;;1.83;0.70;;;18.50;61.10;;;;;;5107923;28;20212;-46
2023/03/19 06:04:50;;;;;;;1.10;1.00;;;18.40;61.10;;;;;;5097332;28;20653;-46
2023/03/19 06:07:18;;;;;;;1.43;0.90;;;18.50;61.10;;;;;;5091951;28;20660;-46
2023/03/19 06:09:48;;;;;;;1.63;1.10;;;18.50;61.10;;;;;;5088188;28;20197;-46
2023/03/19 06:12:19;;;;;;;1.30;0.80;;;18.50;61.10;;;;;;5108047;27;20201;-46
2023/03/19 06:14:49;;;;;;;2.90;1.10;;;18.50;61.10;;;;;;5091996;28;20524;-46
2023/03/19 06:17:17;;;;;;;1.63;1.10;;;18.40;61.10;;;;;;5091016;28;20573;-46
2023/03/19 06:19:45;;;;;;;1.30;1.00;;;18.50;61.10;;;;;;5087411;28;20189;-46
2023/03/19 06:22:13;;;;;;;1.40;1.30;;;18.40;61.10;;;;;;5096166;28;20191;-45
2023/03/19 06:24:44;;;;;;;2.07;1.10;;;18.40;61.10;;;;;;5099672;28;20544;-45
2023/03/19 06:27:12;;;;;;;1.73;0.80;;;18.40;61.10;;;;;;5108243;28;20520;-46
2023/03/19 06:29:44;;;;;;;1.90;1.00;;;18.50;61.10;;;;;;5086820;28;20520;-46
2023/03/19 06:32:15;;;;;;;1.90;1.20;;;18.40;61.10;;;;;;5090771;28;20193;-46
2023/03/19 06:34:47;;;;;;;1.73;1.40;;;18.40;61.00;;;;;;5075164;28;20571;-46
2023/03/19 06:37:17;;;;;;;1.27;1.00;;;18.40;61.10;;;;;;5110131;28;20687;-46
2023/03/19 06:39:48;;;;;;;1.50;1.00;;;18.40;61.10;;;;;;5087892;28;20209;-46
2023/03/19 06:42:23;;;;;;;1.33;0.93;;;18.40;61.10;;;;;;5109322;28;20203;-46
2023/03/19 06:44:56;;;;;;;1.83;1.20;;;18.40;61.10;;;;;;5092051;28;20200;-46
2023/03/19 06:47:28;;;;;;;1.47;1.00;;;18.40;61.10;;;;;;5102837;28;20196;-46
2023/03/19 06:49:59;;;;;;;1.73;1.20;;;18.40;61.10;;;;;;5094936;28;20219;-46
2023/03/19 06:52:30;;;;;;;1.40;1.00;;;18.40;61.10;;;;;;5094460;28;20200;-46
2023/03/19 06:55:03;;;;;;;1.77;0.97;;;18.40;61.10;;;;;;5109878;28;20220;-46
2023/03/19 06:57:49;;;;;;;1.37;0.90;;;18.40;61.70;;;;;;5087291;28;20288;-46
2023/03/19 07:00:21;;;;;;;2.43;1.43;;;18.40;61.10;;;;;;5093025;28;20208;-46
2023/03/19 07:02:50;;;;;;;1.40;1.20;;;18.40;61.10;;;;;;5091036;28;20204;-46
2023/03/19 07:05:36;;;;;;;1.63;1.00;;;18.40;61.10;;;;;;5100073;28;20189;-46
2023/03/19 07:08:10;;;;;;;1.70;1.30;;;18.40;61.10;;;;;;5102387;28;20727;-47
2023/03/19 07:10:41;;;;;;;0.97;0.93;;;18.40;61.10;;;;;;5096708;28;20212;-46
2023/03/19 07:13:16;;;;;;;1.47;1.37;;;18.40;61.10;;;;;;5107359;28;20501;-46
2023/03/19 07:15:48;;;;;;;1.63;1.00;;;18.40;61.00;;;;;;5095662;28;20287;-46
2023/03/19 07:18:16;;;;;;;1.40;1.20;;;18.40;61.00;;;;;;5077240;27;20195;-46
2023/03/19 07:20:48;;;;;;;1.83;1.20;;;18.40;61.00;;;;;;5107321;28;20659;-45
2023/03/19 07:23:21;;;;;;;2.93;0.90;;;18.40;61.00;;;;;;5092983;28;20196;-45
2023/03/19 07:25:50;;;;;;;1.73;1.17;;;18.40;60.90;;;;;;5098855;28;20223;-46
2023/03/19 07:28:20;;;;;;;1.10;1.00;;;18.40;60.90;;;;;;5101674;28;20550;-46
2023/03/19 07:30:52;;;;;;;1.57;1.07;;;18.40;60.90;;;;;;5098227;28;20246;-46
2023/03/19 07:33:22;;;;;;;1.83;1.17;;;18.40;60.90;;;;;;5071964;28;20193;-45
2023/03/19 07:35:56;;;;;;;1.80;1.20;;;18.40;60.90;;;;;;5094791;28;20721;-46
2023/03/19 07:38:36;;;;;;;2.50;1.30;;;18.40;60.90;;;;;;5081650;28;20209;-46
2023/03/19 07:41:08;;;;;;;1.90;0.97;;;18.40;60.90;;;;;;5089201;28;20212;-46
2023/03/19 07:43:39;;;;;;;1.87;1.10;;;18.40;60.90;;;;;;5089566;28;20631;-46
2023/03/19 07:46:10;;;;;;;1.20;1.10;;;18.40;60.80;;;;;;5107163;28;20197;-46
2023/03/19 07:48:40;;;;;;;1.33;0.97;;;18.40;60.80;;;;;;5084973;28;20208;-46
2023/03/19 07:51:11;;;;;;;1.37;1.03;;;18.40;60.80;;;;;;5093837;28;20212;-46
2023/03/19 07:53:41;;;;;;;1.37;1.00;;;18.40;60.80;;;;;;5097197;28;20200;-46
2023/03/19 07:56:11;;;;;;;1.30;1.20;;;18.40;60.80;;;;;;5088709;28;20194;-45
2023/03/19 07:58:40;;;;;;;1.27;1.10;;;18.40;60.80;;;;;;5073912;28;20232;-46
2023/03/19 08:01:11;;;;;;;1.23;1.10;;;18.40;60.80;;;;;;5089322;28;20661;-45
2023/03/19 08:03:41;;;;;;;1.97;1.37;;;18.40;60.80;;;;;;5091550;28;20205;-46
2023/03/19 08:06:13;;;;;;;2.37;1.30;;;18.40;60.90;;;;;;5092312;28;20682;-46
2023/03/19 08:08:44;;;;;;;1.80;1.23;;;18.40;60.80;;;;;;5093567;28;20213;-45
2023/03/19 08:11:14;;;;;;;2.40;1.60;;;18.40;60.80;;;;;;5098403;28;20323;-46
2023/03/19 08:13:46;;;;;;;2.97;1.80;;;18.40;60.80;;;;;;5088182;28;20665;-46
2023/03/19 08:16:21;;;;;;;2.30;1.60;;;18.40;60.80;;;;;;5087158;28;20197;-46
2023/03/19 08:18:50;;;;;;;2.27;1.60;;;18.40;60.70;;;;;;5093945;28;20257;-45
2023/03/19 08:21:21;;;;;;;1.90;1.60;;;18.50;60.80;;;;;;5082939;28;20205;-46
2023/03/19 08:23:52;;;;;;;2.30;1.70;;;18.40;60.70;;;;;;5079555;28;20195;-46
2023/03/19 08:26:22;;;;;;;1.93;1.63;;;18.40;60.70;;;;;;5098687;28;20229;-45
2023/03/19 08:28:54;;;;;;;2.50;1.60;;;18.50;60.80;;;;;;5100676;28;20199;-45
2023/03/19 08:31:24;;;;;;;3.57;1.80;;;18.50;60.80;;;;;;5085730;28;20196;-46
2023/03/19 08:33:58;;;;;;;5.23;1.60;;;18.50;60.80;;;;;;5084447;28;20281;-46
2023/03/19 08:36:37;;;;;;;2.30;1.77;;;18.50;60.80;;;;;;5101105;28;20278;-45
2023/03/19 08:39:10;;;;;;;2.40;1.60;;;18.40;60.90;;;;;;5095870;28;20220;-45
2023/03/19 08:41:40;;;;;;;3.37;2.03;;;18.40;60.90;;;;;;5090598;28;20253;-46
2023/03/19 08:44:11;;;;;;;4.53;1.90;;;18.40;60.90;;;;;;5095219;28;20589;-46
2023/03/19 08:46:44;;;;;;;4.13;1.70;;;18.50;61.00;;;;;;5106303;28;20199;-45
2023/03/19 08:49:15;;;;;;;3.83;1.60;;;18.40;60.90;;;;;;5107165;28;20192;-46
2023/03/19 08:51:43;;;;;;;4.33;1.90;;;18.50;61.00;;;;;;5087872;28;20217;-46
2023/03/19 08:54:12;;;;;;;3.70;1.80;;;18.50;60.90;;;;;;5064306;28;20185;-46
2023/03/19 08:56:44;;;;;;;2.73;1.83;;;18.50;60.90;;;;;;5099996;28;20240;-45
2023/03/19 08:59:15;;;;;;;3.53;1.90;;;18.50;60.90;;;;;;5081167;28;20192;-46
2023/03/19 09:01:52;;;;;;;2.70;1.93;;;18.50;60.80;;;;;;5100281;28;20260;-45
2023/03/19 09:04:40;;;;;;;2.77;1.70;;;18.50;60.80;;;;;;5082359;28;20190;-45
2023/03/19 09:07:14;;;;;;;3.50;2.07;;;18.50;60.80;;;;;;5080856;28;20193;-45
2023/03/19 09:09:45;;;;;;;3.53;2.10;;;18.50;61.00;;;;;;5094503;28;20755;-45
2023/03/19 09:12:19;;;;;;;3.60;2.23;;;18.50;60.90;;;;;;5078937;28;20238;-45
2023/03/19 09:14:50;;;;;;;3.53;2.00;;;18.50;61.60;;;;;;5092673;28;20274;-45
2023/03/19 09:17:20;;;;;;;5.37;1.90;;;18.50;62.30;;;;;;5099715;28;20208;-45
2023/03/19 09:19:49;;;;;;;7.27;1.83;;;18.50;62.30;;;;;;5104140;28;20193;-45
2023/03/19 09:22:33;;;;;;;5.53;2.20;;;18.50;62.50;;;;;;5104870;28;20291;-46
2023/03/19 09:25:06;;;;;;;9.70;2.23;;;18.50;62.50;;;;;;5109127;28;20188;-46
2023/03/19 09:27:38;;;;;;;8.67;2.50;;;18.50;62.40;;;;;;5101150;28;20232;-45
2023/03/19 09:30:10;;;;;;;8.33;2.20;;;18.50;62.30;;;;;;5097265;28;20235;-46
2023/03/19 09:32:40;;;;;;;3.77;2.00;;;18.50;62.00;;;;;;5065506;28;20189;-46
2023/03/19 09:35:12;;;;;;;4.27;2.27;;;18.60;62.10;;;;;;5094637;28;20196;-46
2023/03/19 09:37:49;;;;;;;3.87;2.00;;;18.60;61.90;;;;;;5089552;28;20197;-46
2023/03/19 09:40:35;;;;;;;6.37;2.07;;;18.60;61.80;;;;;;5092274;28;20193;-46
2023/03/19 09:43:41;;;;;;;4.80;2.03;;;18.60;61.70;;;;;;5099608;28;20193;-46
2023/03/19 09:46:21;;;;;;;3.50;2.17;;;18.60;61.70;;;;;;5106220;28;20224;-46
2023/03/19 09:48:56;;;;;;;6.90;2.20;;;18.60;61.50;;;;;;5084030;28;20195;-46
2023/03/19 09:51:50;;;;;;;4.37;2.07;;;18.60;61.60;;;;;;5081954;28;20201;-47
2023/03/19 09:54:42;;;;;;;4.63;1.93;;;18.60;61.50;;;;;;5091703;28;20224;-46
2023/03/19 09:57:13;;;;;;;7.47;2.10;;;18.60;61.40;;;;;;5080425;28;20189;-46
2023/03/19 09:59:52;;;;;;;5.33;2.17;;;18.60;61.30;;;;;;5076556;28;20199;-46
2023/03/19 10:02:42;;;;;;;2.73;1.93;;;18.60;61.20;;;;;;5093981;28;20240;-46
2023/03/19 10:05:47;;;;;;;5.33;2.00;;;18.60;61.20;;;;;;5100009;28;20258;-46
2023/03/19 10:09:06;;;;;;;3.83;1.70;;;18.60;61.00;;;;;;5066396;28;20208;-47
2023/03/19 10:11:56;;;;;;;6.27;1.67;;;18.60;61.00;;;;;;5003870;28;20212;-46
2023/03/19 10:14:53;;;;;;;6.37;1.90;;;18.70;61.30;;;;;;5000964;28;20220;-47
2023/03/19 10:18:11;;;;;;;3.13;1.60;;;18.80;61.60;;;;;;5001637;28;20539;-46
2023/03/19 10:21:21;;;;;;;4.37;1.90;;;18.90;61.30;;;;;;5004038;28;20681;-46
2023/03/19 10:23:59;;;;;;;4.00;1.80;;;19.00;61.50;;;;;;4994876;28;20224;-46
2023/03/19 10:26:41;;;;;;;5.67;1.77;;;19.10;61.50;;;;;;4997419;28;20860;-46
2023/03/19 10:29:23;;;;;;;2.87;1.50;;;19.10;61.40;;;;;;4995473;28;20276;-46
2023/03/19 10:32:06;;;;;;;3.63;1.50;;;19.20;61.20;;;;;;4987658;28;20744;-46
2023/03/19 10:34:47;;;;;;;4.10;1.93;;;19.30;61.10;;;;;;4990681;28;20650;-46
2023/03/19 10:37:44;;;;;;;3.90;1.77;;;19.40;61.00;;;;;;5013778;28;20199;-47
2023/03/19 10:40:24;;;;;;;4.27;1.87;;;19.50;60.60;;;;;;5006775;28;20630;-47
2023/03/19 10:43:19;;;;;;;5.23;1.90;;;19.60;60.50;;;;;;4991850;28;20696;-47
2023/03/19 10:45:53;;;;;;;2.97;1.70;;;19.70;60.50;;;;;;4989061;28;20287;-47
2023/03/19 10:48:26;;;;;;;3.27;1.67;;;19.70;60.00;;;;;;5071766;28;20275;-46
2023/03/19 10:51:05;;;;;;;4.57;1.50;;;19.80;59.90;;;;;;5100632;28;20263;-48
2023/03/19 10:53:37;;;;;;;5.00;1.17;;;19.90;60.00;;;;;;5082969;28;20203;-45
2023/03/19 10:56:24;;;;;;;4.00;1.73;;;19.90;59.90;;;;;;5079967;28;20261;-46
2023/03/19 10:59:10;;;;;;;4.47;1.60;;;19.90;59.60;;;;;;5101682;28;20715;-46
2023/03/19 11:01:40;;;;;;;4.43;1.83;;;20.00;59.30;;;;;;5069637;28;20730;-46
2023/03/19 11:04:24;;;;;;;3.03;1.60;;;20.10;59.10;;;;;;5075609;28;20198;-46
2023/03/19 11:06:55;;;;;;;4.13;1.90;;;20.10;58.40;;;;;;5070274;28;20184;-46
2023/03/19 11:09:43;;;;;;;5.63;1.67;;;20.10;58.10;;;;;;5083272;28;20279;-45
2023/03/19 11:12:33;;;;;;;6.77;2.00;;;20.10;58.30;;;;;;5082689;28;20223;-46
2023/03/19 11:15:22;;;;;;;3.30;1.60;;;20.10;58.30;;;;;;5104320;28;20361;-46
2023/03/19 11:18:23;;;;;;;4.00;1.70;;;20.00;58.40;;;;;;5092019;28;20525;-46
2023/03/19 11:21:04;;;;;;;5.30;1.70;;;19.90;58.10;;;;;;5098899;28;20193;-46
2023/03/19 11:23:39;;;;;;;3.63;1.70;;;19.90;58.40;;;;;;5075601;28;20224;-45
2023/03/19 11:26:18;;;;;;;4.83;1.67;;;19.80;58.30;;;;;;5073767;28;20772;-46
2023/03/19 11:28:56;;;;;;;4.40;1.57;;;19.80;58.60;;;;;;5065459;28;20201;-46
2023/03/19 11:32:14;;;;;;;4.20;1.77;;;19.80;58.50;;;;;;5065574;28;20200;-46
2023/03/19 11:35:20;;;;;;;3.13;1.70;;;19.80;58.70;;;;;;5039633;28;20210;-46
2023/03/19 11:38:06;;;;;;;3.53;1.43;;;19.70;58.40;;;;;;5037992;28;20587;-46
2023/03/19 11:40:49;;;;;;;4.87;1.80;;;19.70;58.60;;;;;;5066803;28;20208;-46
2023/03/19 11:44:00;;;;;;;3.53;1.53;;;19.70;58.90;;;;;;5079472;28;20213;-46
2023/03/19 11:46:35;;;;;;;2.30;1.57;;;19.70;58.60;;;;;;5084999;28;20561;-46
2023/03/19 11:49:27;;;;;;;3.33;1.57;;;19.60;58.90;;;;;;5088253;28;20654;-46
2023/03/19 11:52:15;;;;;;;2.87;1.60;;;19.60;58.70;;;;;;5077469;28;20228;-46
2023/03/19 11:55:01;;;;;;;7.40;1.70;;;19.60;59.30;;;;;;5088026;28;20579;-48
2023/03/19 11:57:47;;;;;;;2.73;1.73;;;19.60;59.20;;;;;;5077920;28;20198;-46
2023/03/19 12:00:35;;;;;;;3.50;1.63;;;19.60;59.40;;;;;;5092505;28;20185;-46
2023/03/19 12:03:30;;;;;;;2.93;1.70;;;19.50;59.30;;;;;;5069876;28;20236;-46
2023/03/19 12:06:33;;;;;;;2.53;1.73;;;19.50;59.40;;;;;;5088797;28;20447;-45
2023/03/19 12:09:28;;;;;;;3.23;1.63;;;19.50;59.30;;;;;;5068578;28;20201;-46
2023/03/19 12:12:24;;;;;;;3.27;1.50;;;19.50;59.30;;;;;;5083673;28;20193;-46
2023/03/19 12:15:03;;;;;;;3.50;1.50;;;19.50;59.40;;;;;;5071105;28;20205;-47
2023/03/19 12:18:03;;;;;;;2.53;1.50;;;19.50;59.60;;;;;;5060788;28;20209;-46
2023/03/19 12:21:02;;;;;;;2.10;1.60;;;19.50;59.40;;;;;;5063222;28;20204;-46
2023/03/19 12:24:08;;;;;;;3.43;1.40;;;19.50;59.60;;;;;;5089179;28;20244;-45
2023/03/19 12:27:07;;;;;;;2.67;1.50;;;19.40;59.60;;;;;;5076261;28;20573;-46
2023/03/19 12:29:55;;;;;;;3.13;1.23;;;19.40;59.40;;;;;;5091138;28;20184;-46
2023/03/19 12:32:48;;;;;;;4.07;1.43;;;19.40;59.30;;;;;;5094230;28;20212;-46
2023/03/19 12:35:35;;;;;;;3.97;1.20;;;19.40;59.30;;;;;;5092391;28;20188;-46
2023/03/19 12:38:45;;;;;;;3.07;1.50;;;19.50;59.40;;;;;;5072533;28;20634;-46
2023/03/19 12:41:32;;;;;;;3.67;1.43;;;19.40;59.40;;;;;;5087514;28;20208;-46
2023/03/19 12:44:31;;;;;;;2.53;1.37;;;19.40;59.40;;;;;;5095535;28;20200;-46
2023/03/19 12:47:13;;;;;;;3.83;1.50;;;19.40;59.40;;;;;;5088139;28;20503;-46
2023/03/19 12:49:51;;;;;;;4.03;1.40;;;19.40;59.50;;;;;;5069810;28;20219;-46
2023/03/19 12:52:35;;;;;;;2.17;1.10;;;19.40;59.40;;;;;;5080126;28;20881;-46
2023/03/19 12:55:45;;;;;;;2.73;1.47;;;19.40;59.40;;;;;;5099351;28;20322;-46
2023/03/19 12:58:31;;;;;;;1.77;1.10;;;19.40;59.30;;;;;;5106252;28;20196;-46
2023/03/19 13:01:13;;;;;;;3.33;1.13;;;19.40;59.40;;;;;;5092599;28;20203;-46
2023/03/19 13:04:26;;;;;;;1.80;1.00;;;19.40;59.30;;;;;;5089733;28;20602;-46
2023/03/19 13:07:25;;;;;;;3.77;1.37;;;19.40;59.40;;;;;;5104854;28;20227;-46
2023/03/19 13:10:09;;;;;;;2.47;1.20;;;19.40;59.50;;;;;;5092969;28;20195;-46
2023/03/19 13:12:41;;;;;;;2.70;1.40;;;19.40;59.60;;;;;;5108420;28;20189;-46
2023/03/19 13:15:39;;;;;;;3.43;1.27;;;19.30;59.50;;;;;;5089635;28;20570;-45
2023/03/19 13:18:45;;;;;;;2.77;1.30;;;19.40;59.60;;;;;;5101813;28;20208;-46
2023/03/19 13:21:26;;;;;;;4.23;1.10;;;19.30;59.50;;;;;;5088359;28;20193;-46
2023/03/19 13:24:33;;;;;;;1.93;1.07;;;19.30;59.60;;;;;;5093312;28;20222;-46
2023/03/19 13:27:07;;;;;;;1.60;1.10;;;19.30;59.50;;;;;;5090098;28;20693;-46
2023/03/19 13:30:09;;;;;;;3.93;1.40;;;19.30;59.60;;;;;;5063616;28;20255;-46
2023/03/19 13:33:13;;;;;;;1.57;1.10;;;19.30;59.50;;;;;;5092623;28;20205;-46
2023/03/19 13:35:49;;;;;;;4.73;1.17;;;19.30;59.50;;;;;;5020039;28;20243;-46
2023/03/19 13:38:47;;;;;;;2.53;1.47;;;19.30;59.50;;;;;;5026806;28;20228;-47